Time;durP1;ratioP1;P1;durP2;ratioP2;P2;SDS_P1;SDS_P2;PMS_P1;PMS_P2;Temp;Humidity;BMP_temperature;BMP_pressure;BME280_temperature;BME280_humidity;BME280_pressure;Samples;Min_cycle;Max_cycle;Signal;HPM_P1;HPM_P2
2023/01/08 00:01:50;;;;;;;;;;;18.20;66.60;;;;;;4967862;28;1459;-71
2023/01/08 00:04:16;;;;;;;;;;;18.30;66.70;;;;;;4966697;28;1346;-71
2023/01/08 00:06:42;;;;;;;;;;;18.20;66.70;;;;;;4967977;28;1278;-72
2023/01/08 00:09:08;;;;;;;;;;;18.20;66.70;;;;;;4965243;28;1968;-72
2023/01/08 00:11:34;;;;;;;;;;;18.20;66.70;;;;;;4967655;28;1420;-71
2023/01/08 00:13:59;;;;;;;;;;;18.20;66.70;;;;;;4970406;28;1598;-70
2023/01/08 00:16:25;;;;;;;;;;;18.30;66.70;;;;;;4965062;28;1365;-71
2023/01/08 00:18:50;;;;;;;;;;;18.20;66.70;;;;;;4968981;28;1393;-70
2023/01/08 00:21:15;;;;;;;;;;;18.20;66.80;;;;;;4968558;28;1416;-70
2023/01/08 00:23:41;;;;;;;;;;;18.20;66.80;;;;;;4969703;28;1526;-70
2023/01/08 00:26:07;;;;;;;;;;;18.20;66.80;;;;;;4964012;28;1217;-70
2023/01/08 00:28:33;;;;;;;;;;;18.20;66.80;;;;;;4967429;28;1914;-70
2023/01/08 00:31:00;;;;;;;;;;;18.20;66.80;;;;;;4965834;28;1078;-71
2023/01/08 00:33:25;;;;;;;;;;;18.20;66.80;;;;;;4964890;28;848;-70
2023/01/08 00:35:51;;;;;;;;;;;18.20;66.90;;;;;;4966449;28;1380;-71
2023/01/08 00:38:16;;;;;;;;;;;18.20;66.90;;;;;;4972925;28;856;-70
2023/01/08 00:40:41;;;;;;;;;;;18.20;66.90;;;;;;4966176;28;866;-70
2023/01/08 00:43:07;;;;;;;;;;;18.20;66.90;;;;;;4967923;28;900;-71
2023/01/08 00:45:33;;;;;;;;;;;18.20;66.90;;;;;;4967093;28;1265;-70
2023/01/08 00:47:58;;;;;;;;;;;18.20;67.00;;;;;;4965601;28;2244;-70
2023/01/08 00:50:24;;;;;;;;;;;18.20;67.00;;;;;;4967866;28;840;-70
2023/01/08 00:52:49;;;;;;;;;;;18.20;67.00;;;;;;4966872;28;896;-70
2023/01/08 00:55:15;;;;;;;;;;;18.20;67.00;;;;;;4963601;28;1348;-70
2023/01/08 00:57:40;;;;;;;;;;;18.20;67.00;;;;;;4966457;28;943;-70
2023/01/08 01:00:07;;;;;;;;;;;18.20;67.00;;;;;;4971548;28;991;-70
2023/01/08 01:02:36;;;;;;;;;;;18.20;67.00;;;;;;4967250;28;1210;-70
2023/01/08 01:05:01;;;;;;;;;;;18.20;67.00;;;;;;4960642;28;1365;-70
2023/01/08 01:07:27;;;;;;;;;;;18.10;67.10;;;;;;4968450;28;806;-71
2023/01/08 01:09:52;;;;;;;;;;;18.10;67.00;;;;;;4965138;28;1915;-70
2023/01/08 01:12:18;;;;;;;;;;;18.20;67.10;;;;;;4966224;28;895;-70
2023/01/08 01:14:43;;;;;;;;;;;18.10;67.00;;;;;;4964479;28;1245;-70
2023/01/08 01:17:10;;;;;;;;;;;18.10;67.10;;;;;;4963241;28;836;-70
2023/01/08 01:19:35;;;;;;;;;;;18.10;67.10;;;;;;4967839;28;831;-69
2023/01/08 01:22:00;;;;;;;;;;;18.20;67.10;;;;;;4966917;28;1298;-70
2023/01/08 01:24:26;;;;;;;;;;;18.10;67.10;;;;;;4963196;28;1379;-70
2023/01/08 01:26:52;;;;;;;;;;;18.10;67.10;;;;;;4967921;28;1482;-70
2023/01/08 01:29:17;;;;;;;;;;;18.10;67.10;;;;;;4966095;28;1915;-71
2023/01/08 01:31:43;;;;;;;;;;;18.10;67.10;;;;;;4965769;28;895;-70
2023/01/08 01:34:08;;;;;;;;;;;18.10;67.10;;;;;;4961048;28;875;-70
2023/01/08 01:36:34;;;;;;;;;;;18.10;67.10;;;;;;4965316;28;1198;-71
2023/01/08 01:38:59;;;;;;;;;;;18.10;67.20;;;;;;4967271;28;1010;-71
2023/01/08 01:41:28;;;;;;;;;;;18.10;67.20;;;;;;4963194;28;856;-71
2023/01/08 01:43:54;;;;;;;;;;;18.10;67.20;;;;;;4968828;28;912;-71
2023/01/08 01:46:34;;;;;;;;;;;18.10;67.20;;;;;;4964314;28;1246;-71
2023/01/08 01:49:01;;;;;;;;;;;18.10;67.20;;;;;;4963312;28;1958;-71
2023/01/08 01:51:29;;;;;;;;;;;18.10;67.20;;;;;;4965143;28;1415;-71
2023/01/08 01:53:54;;;;;;;;;;;18.10;67.20;;;;;;4972879;28;1181;-72
2023/01/08 01:56:20;;;;;;;;;;;18.10;67.20;;;;;;4965425;28;1319;-73
2023/01/08 01:58:45;;;;;;;;;;;18.10;67.20;;;;;;4967480;28;1515;-72
2023/01/08 02:01:11;;;;;;;;;;;18.10;67.20;;;;;;4969128;28;903;-72
2023/01/08 02:03:37;;;;;;;;;;;18.10;67.30;;;;;;4962566;28;1359;-71
2023/01/08 02:06:05;;;;;;;;;;;18.10;67.30;;;;;;4963484;28;1374;-70
2023/01/08 02:08:45;;;;;;;;;;;18.10;67.40;;;;;;4964957;28;1903;-71
2023/01/08 02:11:13;;;;;;;;;;;18.10;67.30;;;;;;4967111;28;848;-71
2023/01/08 02:13:39;;;;;;;;;;;18.10;67.30;;;;;;4964427;28;1004;-71
2023/01/08 02:16:10;;;;;;;;;;;18.10;67.30;;;;;;4966018;28;1240;-70
2023/01/08 02:18:42;;;;;;;;;;;18.10;67.40;;;;;;4967435;28;1245;-72
2023/01/08 02:21:09;;;;;;;;;;;18.10;67.40;;;;;;4967428;28;1355;-73
2023/01/08 02:23:53;;;;;;;;;;;18.10;67.40;;;;;;4970616;28;889;-71
2023/01/08 02:26:19;;;;;;;;;;;18.00;67.30;;;;;;4968442;28;1300;-72
2023/01/08 02:28:46;;;;;;;;;;;18.00;67.30;;;;;;4969937;28;1906;-72
2023/01/08 02:31:11;;;;;;;;;;;18.10;67.40;;;;;;4976661;28;1014;-73
2023/01/08 02:33:37;;;;;;;;;;;18.10;67.40;;;;;;4969843;28;1054;-72
2023/01/08 02:36:29;;;;;;;;;;;18.00;67.30;;;;;;4966818;28;1486;-72
2023/01/08 02:39:01;;;;;;;;;;;18.10;67.40;;;;;;4970317;28;1001;-73
2023/01/08 02:41:31;;;;;;;;;;;18.10;67.40;;;;;;4968789;28;1084;-71
2023/01/08 02:43:56;;;;;;;;;;;18.10;67.40;;;;;;4970389;28;915;-71
2023/01/08 02:46:22;;;;;;;;;;;18.00;67.40;;;;;;4968029;28;1264;-71
2023/01/08 02:48:48;;;;;;;;;;;18.00;67.40;;;;;;4970541;28;1989;-71
2023/01/08 02:51:13;;;;;;;;;;;18.00;67.40;;;;;;4976009;28;1038;-71
2023/01/08 02:53:43;;;;;;;;;;;18.00;67.40;;;;;;4967106;28;792;-69
2023/01/08 02:56:10;;;;;;;;;;;18.00;67.40;;;;;;4966952;28;1295;-71
2023/01/08 02:58:35;;;;;;;;;;;18.00;67.40;;;;;;4966804;28;946;-70
2023/01/08 03:01:01;;;;;;;;;;;18.00;67.40;;;;;;4970042;28;911;-71
2023/01/08 03:03:27;;;;;;;;;;;18.00;67.40;;;;;;4970268;28;999;-71
2023/01/08 03:05:57;;;;;;;;;;;18.00;67.40;;;;;;4968645;28;1364;-72
2023/01/08 03:08:22;;;;;;;;;;;18.00;67.40;;;;;;4967582;28;1910;-72
2023/01/08 03:10:49;;;;;;;;;;;18.00;67.40;;;;;;4971881;28;899;-71
2023/01/08 03:13:16;;;;;;;;;;;18.00;67.40;;;;;;4968168;28;911;-70
2023/01/08 03:15:49;;;;;;;;;;;18.00;67.40;;;;;;4969021;28;1250;-70
2023/01/08 03:18:15;;;;;;;;;;;18.00;67.40;;;;;;4970412;28;1090;-68
2023/01/08 03:20:40;;;;;;;;;;;18.00;67.40;;;;;;4971957;28;1395;-68
2023/01/08 03:23:08;;;;;;;;;;;18.00;67.40;;;;;;4968940;28;899;-68
2023/01/08 03:25:33;;;;;;;;;;;18.00;67.40;;;;;;4969054;28;1425;-71
2023/01/08 03:28:01;;;;;;;;;;;18.00;67.40;;;;;;4967016;28;1903;-70
2023/01/08 03:30:26;;;;;;;;;;;18.00;67.40;;;;;;4972836;28;1218;-70
2023/01/08 03:32:52;;;;;;;;;;;18.00;67.40;;;;;;4964011;28;912;-70
2023/01/08 03:35:18;;;;;;;;;;;18.00;67.40;;;;;;4967133;28;1347;-71
2023/01/08 03:37:44;;;;;;;;;;;18.00;67.50;;;;;;4968011;28;880;-73
2023/01/08 03:40:11;;;;;;;;;;;18.00;67.50;;;;;;4968850;28;1006;-73
2023/01/08 03:42:37;;;;;;;;;;;18.00;67.50;;;;;;4969704;28;994;-73
2023/01/08 03:45:02;;;;;;;;;;;18.00;67.50;;;;;;4950288;28;1271;-72
2023/01/08 03:47:29;;;;;;;;;;;18.00;67.50;;;;;;4951976;28;1231;-71
2023/01/08 03:49:54;;;;;;;;;;;18.00;67.50;;;;;;4966994;28;2345;-71
2023/01/08 03:52:27;;;;;;;;;;;18.00;67.50;;;;;;4968857;28;931;-70
2023/01/08 03:54:52;;;;;;;;;;;18.00;67.50;;;;;;4969980;28;1303;-71
2023/01/08 03:57:18;;;;;;;;;;;18.00;67.50;;;;;;4965945;28;1299;-71
2023/01/08 03:59:43;;;;;;;;;;;18.00;67.50;;;;;;4966083;28;845;-72
2023/01/08 04:02:09;;;;;;;;;;;18.00;67.50;;;;;;4968539;28;892;-71
2023/01/08 04:04:35;;;;;;;;;;;18.00;67.60;;;;;;4969372;28;1374;-71
2023/01/08 04:07:00;;;;;;;;;;;18.00;67.50;;;;;;4957622;28;1322;-70
2023/01/08 04:09:25;;;;;;;;;;;18.00;67.50;;;;;;4968958;28;1907;-70
2023/01/08 04:11:51;;;;;;;;;;;18.00;67.60;;;;;;4965806;28;1416;-71
2023/01/08 04:14:17;;;;;;;;;;;18.00;67.50;;;;;;4965763;28;870;-71
2023/01/08 04:16:43;;;;;;;;;;;18.00;67.60;;;;;;4966939;28;1258;-71
2023/01/08 04:19:09;;;;;;;;;;;18.00;67.60;;;;;;4968248;28;923;-70
2023/01/08 04:21:35;;;;;;;;;;;18.00;67.60;;;;;;4968050;28;1354;-71
2023/01/08 04:24:00;;;;;;;;;;;18.00;67.60;;;;;;4966807;28;1204;-71
2023/01/08 04:26:26;;;;;;;;;;;18.00;67.60;;;;;;4970502;28;1241;-71
2023/01/08 04:28:51;;;;;;;;;;;17.90;67.60;;;;;;4968847;28;1914;-70
2023/01/08 04:31:17;;;;;;;;;;;18.00;67.60;;;;;;4971223;28;974;-71
2023/01/08 04:33:42;;;;;;;;;;;18.00;67.60;;;;;;4968944;28;867;-70
2023/01/08 04:36:08;;;;;;;;;;;18.00;67.60;;;;;;4965569;28;1328;-70
2023/01/08 04:38:34;;;;;;;;;;;18.00;67.70;;;;;;4964613;28;867;-71
2023/01/08 04:40:59;;;;;;;;;;;17.90;67.60;;;;;;4961068;28;1042;-70
2023/01/08 04:43:25;;;;;;;;;;;18.00;67.60;;;;;;4967163;28;966;-69
2023/01/08 04:45:50;;;;;;;;;;;18.00;67.60;;;;;;4967215;28;1223;-70
2023/01/08 04:48:16;;;;;;;;;;;17.90;67.60;;;;;;4973970;28;1970;-69
2023/01/08 04:50:41;;;;;;;;;;;18.00;67.60;;;;;;4970381;28;955;-69
2023/01/08 04:53:07;;;;;;;;;;;18.00;67.70;;;;;;4985720;28;1169;-70
2023/01/08 04:55:32;;;;;;;;;;;17.90;67.60;;;;;;4966236;28;1223;-69
2023/01/08 04:57:58;;;;;;;;;;;18.00;67.70;;;;;;4964877;28;959;-70
2023/01/08 05:00:23;;;;;;;;;;;17.90;67.60;;;;;;4965208;28;790;-70
2023/01/08 05:02:49;;;;;;;;;;;17.90;67.70;;;;;;4964132;28;950;-70
2023/01/08 05:05:14;;;;;;;;;;;17.90;67.70;;;;;;4965493;28;1324;-70
2023/01/08 05:07:40;;;;;;;;;;;18.00;67.70;;;;;;4966299;28;869;-70
2023/01/08 05:10:05;;;;;;;;;;;18.00;67.70;;;;;;4967116;28;1906;-70
2023/01/08 05:12:31;;;;;;;;;;;18.00;67.60;;;;;;4968115;28;1512;-71
2023/01/08 05:14:56;;;;;;;;;;;17.90;67.50;;;;;;4966673;28;1229;-71
2023/01/08 05:17:22;;;;;;;;;;;18.00;67.40;;;;;;4964365;28;868;-71
2023/01/08 05:19:47;;;;;;;;;;;18.00;67.40;;;;;;4962004;28;1306;-71
2023/01/08 05:22:13;;;;;;;;;;;18.10;67.30;;;;;;4967303;28;1002;-71
2023/01/08 05:24:38;;;;;;;;;;;18.10;67.20;;;;;;4964866;28;1339;-71
2023/01/08 05:27:04;;;;;;;;;;;18.10;67.00;;;;;;4965426;28;1296;-70
2023/01/08 05:29:29;;;;;;;;;;;18.20;66.90;;;;;;4965340;28;1966;-71
2023/01/08 05:31:55;;;;;;;;;;;18.20;66.80;;;;;;4966876;28;1010;-71
2023/01/08 05:34:20;;;;;;;;;;;18.30;66.70;;;;;;4968113;28;1367;-71
2023/01/08 05:36:48;;;;;;;;;;;18.30;67.30;;;;;;4965843;28;1111;-71
2023/01/08 05:39:14;;;;;;;;;;;18.30;66.50;;;;;;4967054;28;847;-71
2023/01/08 05:41:39;;;;;;;;;;;18.30;66.30;;;;;;4966963;28;876;-71
2023/01/08 05:44:05;;;;;;;;;;;18.30;66.20;;;;;;4966688;28;994;-71
2023/01/08 05:46:30;;;;;;;;;;;18.40;66.20;;;;;;4967828;28;1311;-71
2023/01/08 05:48:56;;;;;;;;;;;18.40;66.10;;;;;;4969939;28;1957;-72
2023/01/08 05:51:22;;;;;;;;;;;18.40;66.80;;;;;;4969991;28;851;-71
2023/01/08 05:53:47;;;;;;;;;;;18.40;66.00;;;;;;4969522;28;1026;-72
2023/01/08 05:56:12;;;;;;;;;;;18.40;65.90;;;;;;4967953;28;1776;-71
2023/01/08 05:58:38;;;;;;;;;;;18.40;65.80;;;;;;4967328;28;1508;-71
2023/01/08 06:01:08;;;;;;;;;;;18.50;65.80;;;;;;4967986;28;1558;-71
2023/01/08 06:03:33;;;;;;;;;;;18.50;65.80;;;;;;4973249;28;1267;-71
2023/01/08 06:05:59;;;;;;;;;;;18.50;65.70;;;;;;4970972;28;1667;-70
2023/01/08 06:08:25;;;;;;;;;;;18.50;65.70;;;;;;4967596;28;1902;-71
2023/01/08 06:10:50;;;;;;;;;;;18.50;65.70;;;;;;4971398;28;1273;-70
2023/01/08 06:13:16;;;;;;;;;;;18.50;65.60;;;;;;4970770;28;896;-72
2023/01/08 06:15:41;;;;;;;;;;;18.50;65.60;;;;;;4967300;28;1288;-71
2023/01/08 06:18:07;;;;;;;;;;;18.50;65.60;;;;;;4967765;28;951;-71
2023/01/08 06:20:32;;;;;;;;;;;18.50;65.50;;;;;;4967565;28;1282;-71
2023/01/08 06:22:57;;;;;;;;;;;18.50;65.50;;;;;;4971097;28;887;-71
2023/01/08 06:25:23;;;;;;;;;;;18.50;65.50;;;;;;4969759;28;1355;-71
2023/01/08 06:27:49;;;;;;;;;;;18.50;65.50;;;;;;4970848;28;848;-71
2023/01/08 06:30:15;;;;;;;;;;;18.50;65.40;;;;;;4969963;28;1973;-71
2023/01/08 06:32:40;;;;;;;;;;;18.50;65.40;;;;;;4970766;28;935;-71
2023/01/08 06:35:06;;;;;;;;;;;18.60;65.50;;;;;;4968656;28;1381;-71
2023/01/08 06:37:31;;;;;;;;;;;18.50;65.40;;;;;;4968759;28;1014;-70
2023/01/08 06:39:57;;;;;;;;;;;18.60;65.40;;;;;;4966928;28;808;-71
2023/01/08 06:42:22;;;;;;;;;;;18.60;65.40;;;;;;4971325;28;1278;-71
2023/01/08 06:44:48;;;;;;;;;;;18.60;65.50;;;;;;4966535;28;1303;-71
2023/01/08 06:47:13;;;;;;;;;;;18.60;65.40;;;;;;4970510;28;907;-71
2023/01/08 06:49:39;;;;;;;;;;;18.60;65.40;;;;;;4969665;28;1902;-69
2023/01/08 06:52:04;;;;;;;;;;;18.50;65.30;;;;;;4972630;28;863;-70
2023/01/08 06:54:30;;;;;;;;;;;18.60;65.40;;;;;;4970755;28;1243;-70
2023/01/08 06:56:55;;;;;;;;;;;18.60;65.40;;;;;;4971067;28;804;-70
2023/01/08 06:59:21;;;;;;;;;;;18.60;65.50;;;;;;4966239;28;891;-70
2023/01/08 07:01:46;;;;;;;;;;;18.60;65.40;;;;;;4969187;28;847;-69
2023/01/08 07:04:12;;;;;;;;;;;18.60;65.40;;;;;;4969554;28;1383;-69
2023/01/08 07:06:37;;;;;;;;;;;18.60;65.40;;;;;;4968665;28;1286;-70
2023/01/08 07:09:02;;;;;;;;;;;18.60;65.40;;;;;;4966209;28;1960;-69
2023/01/08 07:11:28;;;;;;;;;;;18.50;65.30;;;;;;4970895;28;812;-70
2023/01/08 07:13:54;;;;;;;;;;;18.60;65.40;;;;;;4962289;28;858;-70
2023/01/08 07:16:19;;;;;;;;;;;18.50;65.40;;;;;;4966307;28;1259;-69
2023/01/08 07:18:45;;;;;;;;;;;18.50;65.40;;;;;;4968862;28;805;-70
2023/01/08 07:21:10;;;;;;;;;;;18.50;65.50;;;;;;4981515;28;1365;-70
2023/01/08 07:23:37;;;;;;;;;;;18.50;65.40;;;;;;4968463;28;1559;-70
2023/01/08 07:26:03;;;;;;;;;;;18.50;65.50;;;;;;4967425;28;1352;-71
2023/01/08 07:28:28;;;;;;;;;;;18.50;65.60;;;;;;4981940;28;1968;-71
2023/01/08 07:30:53;;;;;;;;;;;18.50;65.50;;;;;;4962009;28;1723;-72
2023/01/08 07:33:19;;;;;;;;;;;18.50;65.50;;;;;;4968006;28;1509;-72
2023/01/08 07:35:51;;;;;;;;;;;18.50;65.60;;;;;;4965262;28;1292;-71
2023/01/08 07:38:16;;;;;;;;;;;18.50;65.60;;;;;;4966395;28;966;-71
2023/01/08 07:40:42;;;;;;;;;;;18.50;65.60;;;;;;4967988;28;889;-72
2023/01/08 07:43:07;;;;;;;;;;;18.50;65.70;;;;;;4966964;28;2090;-69
2023/01/08 07:45:33;;;;;;;;;;;18.50;65.70;;;;;;4968003;28;2196;-69
2023/01/08 07:47:58;;;;;;;;;;;18.50;65.80;;;;;;4969198;28;1719;-70
2023/01/08 07:50:24;;;;;;;;;;;18.40;65.60;;;;;;4966881;28;1969;-67
2023/01/08 07:52:50;;;;;;;;;;;18.50;65.70;;;;;;4965499;28;862;-68
2023/01/08 07:55:15;;;;;;;;;;;18.50;65.70;;;;;;4968008;28;1300;-69
2023/01/08 07:57:40;;;;;;;;;;;18.50;65.80;;;;;;4970505;28;856;-70
2023/01/08 08:00:06;;;;;;;;;;;18.50;65.80;;;;;;4963879;28;883;-70
2023/01/08 08:02:32;;;;;;;;;;;18.50;65.80;;;;;;4966528;28;2204;-70
2023/01/08 08:04:57;;;;;;;;;;;18.40;65.70;;;;;;4962671;28;1386;-70
2023/01/08 08:07:23;;;;;;;;;;;18.40;65.80;;;;;;4968062;28;1447;-70
2023/01/08 08:09:48;;;;;;;;;;;18.40;65.70;;;;;;4965926;28;1964;-71
2023/01/08 08:12:14;;;;;;;;;;;18.40;65.80;;;;;;4968082;28;883;-72
2023/01/08 08:14:39;;;;;;;;;;;18.40;65.80;;;;;;4966955;28;1196;-72
2023/01/08 08:17:05;;;;;;;;;;;18.40;65.80;;;;;;4968164;28;961;-72
2023/01/08 08:19:30;;;;;;;;;;;18.50;65.80;;;;;;4967565;28;788;-69
2023/01/08 08:21:56;;;;;;;;;;;18.40;65.70;;;;;;4967469;28;1315;-70
2023/01/08 08:24:21;;;;;;;;;;;18.50;65.80;;;;;;4967526;28;1148;-71
2023/01/08 08:26:47;;;;;;;;;;;18.50;65.80;;;;;;4966859;28;1233;-72
2023/01/08 08:29:12;;;;;;;;;;;18.50;65.70;;;;;;4966880;28;1915;-73
2023/01/08 08:31:38;;;;;;;;;;;18.50;65.70;;;;;;4964529;28;1158;-72
2023/01/08 08:34:05;;;;;;;;;;;18.50;65.70;;;;;;4968400;28;855;-71
2023/01/08 08:36:31;;;;;;;;;;;18.50;65.70;;;;;;4967223;28;1285;-72
2023/01/08 08:38:56;;;;;;;;;;;18.50;65.60;;;;;;4968049;28;850;-73
2023/01/08 08:41:22;;;;;;;;;;;18.50;65.70;;;;;;4985617;28;1404;-72
2023/01/08 08:43:50;;;;;;;;;;;18.50;65.60;;;;;;4968626;28;844;-72
2023/01/08 08:46:15;;;;;;;;;;;18.50;65.60;;;;;;4967008;28;1293;-72
2023/01/08 08:48:42;;;;;;;;;;;18.50;65.50;;;;;;4961394;28;1919;-73
2023/01/08 08:51:08;;;;;;;;;;;18.50;65.50;;;;;;4967432;28;1071;-72
2023/01/08 08:53:33;;;;;;;;;;;18.50;65.50;;;;;;4971310;28;1181;-73
2023/01/08 08:55:58;;;;;;;;;;;18.50;65.50;;;;;;4965545;28;1264;-73
2023/01/08 08:58:24;;;;;;;;;;;18.50;65.50;;;;;;4965371;28;1042;-73
2023/01/08 09:00:49;;;;;;;;;;;18.60;65.50;;;;;;4970050;28;831;-73
2023/01/08 09:03:15;;;;;;;;;;;18.50;65.40;;;;;;4964482;28;1273;-72
2023/01/08 09:05:41;;;;;;;;;;;18.60;65.40;;;;;;4966375;28;1240;-72
2023/01/08 09:08:07;;;;;;;;;;;18.50;65.30;;;;;;4967373;28;873;-72
2023/01/08 09:10:33;;;;;;;;;;;18.60;65.40;;;;;;4966940;28;1991;-71
2023/01/08 09:12:58;;;;;;;;;;;18.60;65.40;;;;;;4964070;28;901;-70
2023/01/08 09:15:24;;;;;;;;;;;18.60;65.30;;;;;;4965508;28;1256;-70
2023/01/08 09:17:53;;;;;;;;;;;18.60;65.30;;;;;;4966316;28;866;-71
2023/01/08 09:20:18;;;;;;;;;;;18.60;65.30;;;;;;4971550;28;1288;-69
2023/01/08 09:22:44;;;;;;;;;;;18.60;65.20;;;;;;4972395;28;842;-70
2023/01/08 09:25:09;;;;;;;;;;;18.60;65.20;;;;;;4965779;28;1262;-70
2023/01/08 09:27:35;;;;;;;;;;;18.60;65.20;;;;;;4967615;28;963;-70
2023/01/08 09:30:00;;;;;;;;;;;18.60;65.20;;;;;;4964126;28;1891;-70
2023/01/08 09:32:26;;;;;;;;;;;18.60;65.20;;;;;;4963183;28;888;-73
2023/01/08 09:34:51;;;;;;;;;;;18.60;65.20;;;;;;4965564;28;1376;-72
2023/01/08 09:37:17;;;;;;;;;;;18.60;65.20;;;;;;4965868;28;933;-72
2023/01/08 09:39:42;;;;;;;;;;;18.60;65.10;;;;;;4967773;28;931;-72
2023/01/08 09:42:09;;;;;;;;;;;18.60;65.10;;;;;;4962416;28;1015;-71
2023/01/08 09:44:36;;;;;;;;;;;18.60;65.10;;;;;;4950763;28;1297;-71
2023/01/08 09:47:01;;;;;;;;;;;18.60;65.10;;;;;;4963094;28;878;-72
2023/01/08 09:49:31;;;;;;;;;;;18.60;65.10;;;;;;4963845;28;1914;-72
2023/01/08 09:51:57;;;;;;;;;;;18.60;65.00;;;;;;4961982;28;942;-72
2023/01/08 09:54:23;;;;;;;;;;;18.60;65.00;;;;;;4964871;28;876;-72
2023/01/08 09:56:48;;;;;;;;;;;18.60;65.00;;;;;;4963800;28;1380;-72
2023/01/08 09:59:15;;;;;;;;;;;18.60;65.10;;;;;;4964774;28;951;-72
2023/01/08 10:01:43;;;;;;;;;;;18.60;65.00;;;;;;4966676;28;1031;-71
2023/01/08 10:04:16;;;;;;;;;;;18.60;65.00;;;;;;4968789;28;1491;-71
2023/01/08 10:06:47;;;;;;;;;;;18.60;65.00;;;;;;4967102;28;1314;-72
2023/01/08 10:09:13;;;;;;;;;;;18.60;65.00;;;;;;4966222;28;1922;-71
2023/01/08 10:11:42;;;;;;;;;;;18.60;65.00;;;;;;4967309;28;793;-71
2023/01/08 10:14:12;;;;;;;;;;;18.60;65.00;;;;;;4973355;28;935;-71
2023/01/08 10:16:38;;;;;;;;;;;18.60;65.00;;;;;;4963322;28;1294;-71
2023/01/08 10:19:03;;;;;;;;;;;18.60;65.10;;;;;;4970777;28;1398;-72
2023/01/08 10:21:35;;;;;;;;;;;18.70;65.10;;;;;;4964847;28;1345;-75
2023/01/08 10:24:01;;;;;;;;;;;18.60;65.00;;;;;;4965583;28;1378;-72
2023/01/08 10:26:35;;;;;;;;;;;18.60;65.00;;;;;;4966986;28;1396;-73
2023/01/08 10:29:07;;;;;;;;;;;18.60;65.00;;;;;;4967650;28;1956;-74
2023/01/08 10:31:33;;;;;;;;;;;18.60;65.00;;;;;;4965729;28;1454;-72
2023/01/08 10:34:05;;;;;;;;;;;18.70;65.10;;;;;;4965025;28;1929;-71
2023/01/08 10:36:30;;;;;;;;;;;18.60;65.00;;;;;;4962971;28;1889;-71
2023/01/08 10:38:59;;;;;;;;;;;18.60;65.10;;;;;;4962942;28;1440;-71
2023/01/08 10:41:25;;;;;;;;;;;18.60;65.00;;;;;;4968504;28;1530;-71
2023/01/08 10:43:53;;;;;;;;;;;18.60;65.00;;;;;;4971233;28;1431;-72
2023/01/08 10:46:35;;;;;;;;;;;18.60;65.10;;;;;;4969480;28;1617;-72
2023/01/08 10:49:01;;;;;;;;;;;18.60;65.10;;;;;;4968259;28;1899;-71
2023/01/08 10:51:27;;;;;;;;;;;18.60;65.00;;;;;;4985230;28;1339;-72
2023/01/08 10:53:53;;;;;;;;;;;18.60;65.10;;;;;;4968858;28;1298;-70
2023/01/08 10:56:23;;;;;;;;;;;18.60;65.00;;;;;;4968492;28;1457;-70
2023/01/08 10:58:48;;;;;;;;;;;18.60;65.00;;;;;;4969565;28;1351;-71
2023/01/08 11:01:24;;;;;;;;;;;18.60;65.00;;;;;;4969480;28;867;-71
2023/01/08 11:03:56;;;;;;;;;;;18.70;65.10;;;;;;4966677;28;1253;-72
2023/01/08 11:06:22;;;;;;;;;;;18.60;65.00;;;;;;4965010;28;2596;-72
2023/01/08 11:08:52;;;;;;;;;;;18.60;65.00;;;;;;4966689;28;1957;-71
2023/01/08 11:11:17;;;;;;;;;;;18.60;65.00;;;;;;4968310;28;1689;-72
2023/01/08 11:13:54;;;;;;;;;;;18.70;65.80;;;;;;4970093;28;1621;-72
2023/01/08 11:16:22;;;;;;;;;;;18.60;65.00;;;;;;4973403;28;1269;-72
2023/01/08 11:18:48;;;;;;;;;;;18.60;65.00;;;;;;4963786;28;844;-71
2023/01/08 11:21:18;;;;;;;;;;;18.60;65.00;;;;;;4968735;28;1303;-70
2023/01/08 11:23:43;;;;;;;;;;;18.60;65.00;;;;;;4966991;28;1447;-71
2023/01/08 11:26:10;;;;;;;;;;;18.60;65.00;;;;;;4971498;28;1378;-71
2023/01/08 11:28:54;;;;;;;;;;;18.60;65.00;;;;;;4970148;28;1879;-71
2023/01/08 11:31:49;;;;;;;;;;;18.60;65.80;;;;;;4969541;28;1554;-71
2023/01/08 11:34:29;;;;;;;;;;;18.60;65.10;;;;;;4963768;28;1520;-71
2023/01/08 11:37:01;;;;;;;;;;;18.60;65.10;;;;;;4950435;28;1466;-71
2023/01/08 11:39:26;;;;;;;;;;;18.60;65.10;;;;;;4970449;28;1198;-72
2023/01/08 11:42:04;;;;;;;;;;;18.60;65.10;;;;;;4954156;28;1376;-73
2023/01/08 11:44:32;;;;;;;;;;;18.60;65.10;;;;;;4967451;28;1416;-72
2023/01/08 11:47:16;;;;;;;;;;;18.60;65.10;;;;;;4965941;28;1348;-72
2023/01/08 11:49:55;;;;;;;;;;;18.60;65.10;;;;;;4969652;28;1907;-72
2023/01/08 11:52:36;;;;;;;;;;;18.60;65.10;;;;;;4981985;28;1530;-72
2023/01/08 11:55:16;;;;;;;;;;;18.60;65.20;;;;;;4966632;28;1362;-72
2023/01/08 11:57:41;;;;;;;;;;;18.60;65.20;;;;;;4968020;28;935;-72
2023/01/08 12:00:17;;;;;;;;;;;18.60;65.20;;;;;;4967423;28;958;-72
2023/01/08 12:02:49;;;;;;;;;;;18.60;65.20;;;;;;4967738;28;888;-72
2023/01/08 12:05:15;;;;;;;;;;;18.60;65.20;;;;;;4964656;28;1847;-72
2023/01/08 12:07:48;;;;;;;;;;;18.60;65.10;;;;;;4967567;28;1374;-72
2023/01/08 12:10:43;;;;;;;;;;;18.60;65.20;;;;;;4967626;28;1952;-72
2023/01/08 12:13:18;;;;;;;;;;;18.60;65.20;;;;;;4980522;28;2049;-72
2023/01/08 12:15:50;;;;;;;;;;;18.60;65.20;;;;;;4981230;28;1825;-72
2023/01/08 12:18:15;;;;;;;;;;;18.60;65.20;;;;;;4965499;28;1219;-72
2023/01/08 12:20:47;;;;;;;;;;;18.60;65.20;;;;;;4966319;28;1268;-73
2023/01/08 12:23:19;;;;;;;;;;;18.60;65.20;;;;;;4967428;28;1396;-73
2023/01/08 12:25:50;;;;;;;;;;;18.60;65.30;;;;;;4963223;28;1384;-73
2023/01/08 12:28:34;;;;;;;;;;;18.60;65.30;;;;;;4967453;28;837;-72
2023/01/08 12:31:07;;;;;;;;;;;18.60;65.30;;;;;;4969666;28;952;-73
2023/01/08 12:33:32;;;;;;;;;;;18.60;65.30;;;;;;4966702;28;1489;-73
2023/01/08 12:35:58;;;;;;;;;;;18.50;65.30;;;;;;4968619;28;1287;-72
2023/01/08 12:38:31;;;;;;;;;;;18.60;65.40;;;;;;4966445;28;955;-72
2023/01/08 12:41:00;;;;;;;;;;;18.50;65.30;;;;;;4967589;28;875;-72
2023/01/08 12:43:30;;;;;;;;;;;18.60;65.40;;;;;;4966569;28;848;-72
2023/01/08 12:45:56;;;;;;;;;;;18.50;65.40;;;;;;4968877;28;1296;-72
2023/01/08 12:48:25;;;;;;;;;;;18.60;65.50;;;;;;4966610;28;1928;-72
2023/01/08 12:50:55;;;;;;;;;;;18.50;65.40;;;;;;4964717;28;908;-72
2023/01/08 12:53:25;;;;;;;;;;;18.50;65.50;;;;;;4966545;28;1304;-72
2023/01/08 12:55:51;;;;;;;;;;;18.50;65.50;;;;;;4966420;28;1397;-73
2023/01/08 12:58:20;;;;;;;;;;;18.50;65.50;;;;;;4969770;28;855;-73
2023/01/08 13:01:05;;;;;;;;;;;18.50;65.50;;;;;;4968107;28;1286;-73
2023/01/08 13:03:31;;;;;;;;;;;18.50;65.70;;;;;;4966410;28;1373;-73
2023/01/08 13:06:07;;;;;;;;;;;18.50;65.60;;;;;;4964110;28;1265;-72
2023/01/08 13:08:33;;;;;;;;;;;18.50;65.70;;;;;;4965206;28;1960;-73
2023/01/08 13:10:59;;;;;;;;;;;18.50;65.70;;;;;;4964665;28;947;-72
2023/01/08 13:13:30;;;;;;;;;;;18.50;65.70;;;;;;4969620;28;861;-72
2023/01/08 13:16:12;;;;;;;;;;;18.50;65.70;;;;;;4971793;28;1540;-72
2023/01/08 13:18:38;;;;;;;;;;;18.50;65.70;;;;;;4969468;28;1235;-73
2023/01/08 13:21:03;;;;;;;;;;;18.50;65.80;;;;;;4969309;28;1349;-73
2023/01/08 13:23:37;;;;;;;;;;;18.40;65.80;;;;;;4973060;28;1407;-73
2023/01/08 13:26:03;;;;;;;;;;;18.40;65.80;;;;;;4966739;28;1359;-70
2023/01/08 13:28:37;;;;;;;;;;;18.40;65.80;;;;;;4966807;28;1902;-72
2023/01/08 13:31:09;;;;;;;;;;;18.40;65.80;;;;;;4956892;28;1467;-72
2023/01/08 13:33:35;;;;;;;;;;;18.40;65.90;;;;;;4963938;28;1267;-74
2023/01/08 13:36:12;;;;;;;;;;;18.40;66.00;;;;;;4966068;28;1296;-72
2023/01/08 13:38:38;;;;;;;;;;;18.40;66.00;;;;;;4967403;28;896;-72
2023/01/08 13:41:04;;;;;;;;;;;18.40;66.00;;;;;;4968134;28;835;-71
2023/01/08 13:43:37;;;;;;;;;;;18.40;66.10;;;;;;4965921;28;808;-72
2023/01/08 13:46:03;;;;;;;;;;;18.30;66.00;;;;;;4963408;28;1845;-72
2023/01/08 13:48:28;;;;;;;;;;;18.40;66.10;;;;;;4964185;28;1964;-72
2023/01/08 13:50:53;;;;;;;;;;;18.30;66.00;;;;;;4969561;28;1115;-72
2023/01/08 13:53:19;;;;;;;;;;;18.30;66.10;;;;;;4968149;28;1350;-71
2023/01/08 13:55:48;;;;;;;;;;;18.30;66.10;;;;;;4964334;28;1370;-71
2023/01/08 13:58:17;;;;;;;;;;;18.30;66.10;;;;;;4964791;28;1114;-73
2023/01/08 14:00:44;;;;;;;;;;;18.30;66.10;;;;;;4961846;28;2288;-71
2023/01/08 14:03:25;;;;;;;;;;;18.30;66.20;;;;;;4965379;28;1791;-72
2023/01/08 14:05:51;;;;;;;;;;;18.30;66.20;;;;;;4963148;28;1357;-71
2023/01/08 14:08:20;;;;;;;;;;;18.30;66.20;;;;;;4965282;28;1494;-71
2023/01/08 14:10:45;;;;;;;;;;;18.30;66.30;;;;;;4965681;28;1911;-71
2023/01/08 14:13:11;;;;;;;;;;;18.30;66.30;;;;;;4949020;28;1263;-71
2023/01/08 14:15:36;;;;;;;;;;;18.30;66.30;;;;;;4973030;28;1370;-72
2023/01/08 14:18:02;;;;;;;;;;;18.30;66.30;;;;;;4973088;28;1117;-70
2023/01/08 14:20:29;;;;;;;;;;;18.30;66.30;;;;;;4953696;28;1344;-72
2023/01/08 14:22:54;;;;;;;;;;;18.30;66.30;;;;;;4984612;28;1102;-70
2023/01/08 14:25:20;;;;;;;;;;;18.30;66.40;;;;;;4966300;28;1329;-70
2023/01/08 14:28:01;;;;;;;;;;;18.30;66.40;;;;;;4966587;28;1324;-70
2023/01/08 14:30:27;;;;;;;;;;;18.20;66.40;;;;;;4969143;28;1974;-71
2023/01/08 14:32:53;;;;;;;;;;;18.30;66.50;;;;;;4968843;28;1187;-71
2023/01/08 14:35:19;;;;;;;;;;;18.30;66.50;;;;;;4964746;28;1525;-71